createdAt,value
2019-02-18T00:01:28.527Z,3.40
2019-02-18T00:04:30.952Z,3.40
2019-02-18T00:07:33.573Z,3.30
2019-02-18T00:10:35.851Z,3.30
2019-02-18T00:13:38.195Z,3.30
2019-02-18T00:16:40.578Z,3.20
2019-02-18T00:19:43.082Z,3.20
2019-02-18T00:22:45.463Z,3.20
2019-02-18T00:25:48.778Z,3.20
2019-02-18T00:28:51.076Z,3.10
2019-02-18T00:31:53.367Z,3.10
2019-02-18T00:34:55.673Z,3.10
2019-02-18T00:37:58.008Z,3.10
2019-02-18T00:41:00.289Z,3.00
2019-02-18T00:44:02.644Z,3.00
2019-02-18T00:47:05.106Z,2.90
2019-02-18T00:50:08.050Z,2.80
2019-02-18T00:53:10.335Z,2.80
2019-02-18T00:56:12.646Z,2.80
2019-02-18T00:59:14.972Z,2.70
2019-02-18T01:02:17.375Z,2.70
2019-02-18T01:05:19.644Z,2.60
2019-02-18T01:08:21.939Z,2.60
2019-02-18T01:11:24.411Z,2.60
2019-02-18T01:14:26.741Z,2.50
2019-02-18T01:17:28.998Z,2.50
2019-02-18T01:20:31.331Z,2.50
2019-02-18T01:23:33.603Z,2.40
2019-02-18T01:26:35.983Z,2.40
2019-02-18T01:29:38.262Z,2.30
2019-02-18T01:32:41.111Z,2.30
2019-02-18T01:35:43.435Z,2.20
2019-02-18T01:38:45.699Z,2.20
2019-02-18T01:41:48.029Z,2.10
2019-02-18T01:44:50.383Z,2.10
2019-02-18T01:47:54.392Z,2.00
2019-02-18T01:50:56.721Z,2.00
2019-02-18T01:53:59.051Z,2.00
2019-02-18T01:57:01.367Z,2.00
2019-02-18T02:00:04.077Z,1.90
2019-02-18T02:03:06.425Z,1.90
2019-02-18T02:06:09.276Z,1.90
2019-02-18T02:09:13.365Z,1.90
2019-02-18T02:12:15.635Z,1.90
2019-02-18T02:15:20.911Z,1.90
2019-02-18T02:18:23.335Z,1.80
2019-02-18T02:21:25.676Z,1.80
2019-02-18T02:24:27.933Z,1.80
2019-02-18T02:27:30.240Z,1.70
2019-02-18T02:30:32.487Z,1.70
2019-02-18T02:33:34.785Z,1.70
2019-02-18T02:36:37.099Z,1.70
2019-02-18T02:39:39.974Z,1.70
2019-02-18T02:42:42.270Z,1.60
2019-02-18T02:45:44.618Z,1.60
2019-02-18T02:48:47.686Z,1.60
2019-02-18T02:51:49.962Z,1.60
2019-02-18T02:54:52.463Z,1.50
2019-02-18T02:57:54.880Z,1.50
2019-02-18T03:00:57.220Z,1.50
2019-02-18T03:03:59.708Z,1.40
2019-02-18T03:07:02.043Z,1.40
2019-02-18T03:10:05.426Z,1.30
2019-02-18T03:13:08.907Z,1.30
2019-02-18T03:16:11.183Z,1.30
2019-02-18T03:19:13.569Z,1.20
2019-02-18T03:22:15.886Z,1.20
2019-02-18T03:25:20.724Z,1.10
2019-02-18T03:28:34.806Z,1.10
2019-02-18T03:31:37.047Z,1.10
2019-02-18T03:34:42.865Z,1.10
2019-02-18T03:37:45.227Z,1.00
2019-02-18T03:40:47.597Z,1.00
2019-02-18T03:43:50.588Z,1.00
2019-02-18T03:46:53.015Z,1.00
2019-02-18T03:49:55.285Z,1.00
2019-02-18T03:52:57.572Z,1.00
2019-02-18T03:56:00.203Z,1.00
2019-02-18T03:59:02.873Z,0.90
2019-02-18T04:02:05.274Z,0.90
2019-02-18T04:05:07.668Z,0.90
2019-02-18T04:08:10.485Z,0.80
2019-02-18T04:11:12.842Z,0.80
2019-02-18T04:14:15.823Z,0.70
2019-02-18T04:17:18.124Z,0.70
2019-02-18T04:20:20.423Z,0.70
2019-02-18T04:23:22.752Z,0.70
2019-02-18T04:26:25.071Z,0.70
2019-02-18T04:29:27.371Z,0.60
2019-02-18T04:32:30.064Z,0.60
2019-02-18T04:35:32.850Z,0.50
2019-02-18T04:38:35.210Z,0.50
2019-02-18T04:41:38.170Z,0.50
2019-02-18T04:44:41.931Z,0.50
2019-02-18T04:47:44.301Z,0.50
2019-02-18T04:50:46.576Z,0.50
2019-02-18T04:53:49.600Z,0.40
2019-02-18T04:56:51.850Z,0.40
2019-02-18T04:59:54.663Z,0.40
2019-02-18T05:02:56.956Z,0.40
2019-02-18T05:05:59.313Z,0.40
2019-02-18T05:09:05.288Z,0.40
2019-02-18T05:12:04.179Z,0.40
2019-02-18T05:15:06.504Z,0.40
2019-02-18T05:18:08.807Z,0.40
2019-02-18T05:21:11.062Z,0.40
2019-02-18T05:24:13.467Z,0.40
2019-02-18T05:27:15.792Z,0.40
2019-02-18T05:30:18.143Z,0.40
2019-02-18T05:33:20.426Z,0.40
2019-02-18T05:36:22.788Z,0.50
2019-02-18T05:39:25.045Z,0.50
2019-02-18T05:42:27.330Z,0.50
2019-02-18T05:45:30.477Z,0.60
2019-02-18T05:48:33.987Z,0.60
2019-02-18T05:51:35.785Z,0.60
2019-02-18T05:54:38.156Z,0.60
2019-02-18T05:57:40.442Z,0.50
2019-02-18T06:00:42.740Z,0.50
2019-02-18T06:03:44.991Z,0.40
2019-02-18T06:06:47.273Z,0.40
2019-02-18T06:09:49.559Z,0.30
2019-02-18T06:12:51.868Z,0.30
2019-02-18T06:15:54.241Z,0.30
2019-02-18T06:18:56.510Z,0.40
2019-02-18T06:21:58.787Z,0.40
2019-02-18T06:25:01.113Z,0.40
2019-02-18T06:28:04.930Z,0.40
2019-02-18T06:31:05.733Z,0.40
2019-02-18T06:34:08.029Z,0.40
2019-02-18T06:37:10.827Z,0.40
2019-02-18T06:40:13.278Z,0.40
2019-02-18T06:43:15.903Z,0.50
2019-02-18T06:46:25.550Z,0.50
2019-02-18T06:49:28.671Z,0.50
2019-02-18T06:52:32.645Z,0.50
2019-02-18T06:55:33.212Z,0.50
2019-02-18T06:58:40.819Z,0.50
2019-02-18T07:01:48.627Z,0.50
2019-02-18T07:04:59.823Z,0.50
2019-02-18T07:08:06.764Z,0.50
2019-02-18T07:11:14.707Z,0.50
2019-02-18T07:14:16.990Z,0.50
2019-02-18T07:17:19.358Z,0.50
2019-02-18T07:20:21.660Z,0.50
2019-02-18T07:23:24.159Z,0.50
2019-02-18T07:26:26.752Z,0.60
2019-02-18T07:29:30.531Z,0.60
2019-02-18T07:32:32.832Z,0.70
2019-02-18T07:35:35.335Z,0.80
2019-02-18T07:38:37.668Z,0.90
2019-02-18T07:41:40.607Z,1.00
2019-02-18T07:44:42.890Z,1.10
2019-02-18T07:47:45.255Z,1.20
2019-02-18T07:50:47.566Z,1.30
2019-02-18T07:53:49.833Z,1.50
2019-02-18T07:56:52.846Z,1.60
2019-02-18T07:59:55.169Z,1.80
2019-02-18T08:02:57.827Z,1.90
2019-02-18T08:06:01.277Z,2.10
2019-02-18T08:09:05.071Z,2.30
2019-02-18T08:12:07.413Z,2.50
2019-02-18T08:15:09.779Z,2.70
2019-02-18T08:18:12.023Z,2.90
2019-02-18T08:21:14.319Z,3.00
2019-02-18T08:24:17.287Z,3.20
2019-02-18T08:27:19.811Z,3.30
2019-02-18T08:30:22.140Z,3.40
2019-02-18T08:33:25.283Z,3.60
2019-02-18T08:36:27.595Z,3.70
2019-02-18T08:39:30.868Z,3.80
2019-02-18T08:42:34.224Z,3.80
2019-02-18T08:45:35.851Z,4.00
2019-02-18T08:48:38.279Z,4.10
2019-02-18T08:51:40.630Z,4.20
2019-02-18T08:54:43.256Z,4.20
2019-02-18T08:57:46.410Z,4.20
2019-02-18T09:00:48.985Z,4.20
2019-02-18T09:03:52.261Z,4.30
2019-02-18T09:06:54.674Z,4.20
2019-02-18T09:09:57.708Z,4.30
2019-02-18T09:13:00.104Z,4.30
2019-02-18T09:16:02.477Z,4.40
2019-02-18T09:19:05.035Z,4.40
2019-02-18T09:24:14.024Z,4.50
2019-02-18T09:27:16.334Z,4.60
2019-02-18T09:30:20.443Z,4.80
2019-02-18T09:33:22.851Z,4.80
2019-02-18T09:36:25.171Z,5.00
2019-02-18T09:42:29.791Z,5.20
2019-02-18T09:45:32.909Z,5.30
2019-02-18T09:48:35.263Z,5.50
2019-02-18T09:51:37.571Z,5.60
2019-02-18T09:54:39.919Z,5.70
2019-02-18T09:57:42.269Z,5.80
2019-02-18T10:00:44.626Z,5.90
2019-02-18T10:03:46.959Z,5.90
2019-02-18T10:06:49.269Z,6.10
2019-02-18T10:09:51.832Z,6.20
2019-02-18T10:12:54.310Z,6.30
2019-02-18T10:15:56.604Z,6.40
2019-02-18T10:18:58.951Z,6.50
2019-02-18T10:22:01.368Z,6.60
2019-02-18T10:25:04.014Z,6.70
2019-02-18T10:28:06.314Z,6.80
2019-02-18T10:31:08.657Z,6.90
2019-02-18T10:34:11.030Z,7.00
2019-02-18T10:37:13.332Z,7.10
2019-02-18T10:40:16.316Z,7.20
2019-02-18T10:43:19.710Z,7.20
2019-02-18T10:46:22.059Z,7.30
2019-02-18T10:49:24.473Z,7.30
2019-02-18T10:52:26.986Z,7.40
2019-02-18T10:55:29.304Z,7.40
2019-02-18T10:58:31.847Z,7.40
2019-02-18T11:01:34.203Z,7.40
2019-02-18T11:04:36.523Z,7.50
2019-02-18T11:07:38.929Z,7.50
2019-02-18T11:10:41.297Z,7.50
2019-02-18T11:13:43.649Z,7.60
2019-02-18T11:16:45.957Z,7.60
2019-02-18T11:19:48.260Z,7.60
2019-02-18T11:22:50.669Z,7.60
2019-02-18T11:25:53.283Z,7.70
2019-02-18T11:28:55.683Z,7.80
2019-02-18T11:31:58.002Z,7.80
2019-02-18T11:35:00.717Z,8.00
2019-02-18T11:38:02.864Z,8.10
2019-02-18T11:41:05.192Z,8.20
2019-02-18T11:44:07.514Z,8.40
2019-02-18T11:47:09.912Z,8.40
2019-02-18T11:50:12.281Z,8.50
2019-02-18T11:53:14.562Z,8.70
2019-02-18T11:56:16.887Z,8.70
2019-02-18T11:59:31.586Z,8.70
2019-02-18T12:02:34.281Z,8.70
2019-02-18T12:05:36.644Z,8.80
2019-02-18T12:08:39.593Z,8.90
2019-02-18T12:11:42.265Z,9.00
2019-02-18T12:14:44.588Z,9.10
2019-02-18T12:17:46.888Z,9.20
2019-02-18T12:20:49.168Z,9.20
2019-02-18T12:23:51.569Z,9.40
2019-02-18T12:26:53.855Z,9.40
2019-02-18T12:29:56.163Z,9.50
2019-02-18T12:32:58.465Z,9.50
2019-02-18T12:36:00.812Z,9.60
2019-02-18T12:39:03.848Z,9.60
2019-02-18T12:42:06.153Z,9.80
2019-02-18T12:45:08.596Z,9.80
2019-02-18T12:48:10.950Z,9.80
2019-02-18T12:51:13.301Z,9.90
2019-02-18T12:54:15.605Z,10.00
2019-02-18T12:57:18.057Z,10.00
2019-02-18T13:00:20.497Z,10.10
2019-02-18T13:03:22.920Z,10.10
2019-02-18T13:06:25.276Z,10.20
2019-02-18T13:09:27.649Z,10.30
2019-02-18T13:12:30.168Z,10.20
2019-02-18T13:15:32.556Z,10.30
2019-02-18T13:18:34.851Z,10.40
2019-02-18T13:21:37.169Z,10.50
2019-02-18T13:24:39.528Z,10.50
2019-02-18T13:27:41.843Z,10.40
2019-02-18T13:30:44.254Z,10.30
2019-02-18T13:33:46.549Z,10.40
2019-02-18T13:36:48.892Z,10.60
2019-02-18T13:39:51.199Z,10.60
2019-02-18T13:42:53.531Z,10.50
2019-02-18T13:45:55.848Z,10.50
2019-02-18T13:48:58.206Z,10.50
2019-02-18T13:52:00.560Z,10.50
2019-02-18T13:55:03.392Z,10.50
2019-02-18T13:58:05.819Z,10.40
2019-02-18T14:01:08.160Z,10.40
2019-02-18T14:04:10.485Z,10.50
2019-02-18T14:07:12.863Z,10.60
2019-02-18T14:10:15.180Z,10.60
2019-02-18T14:13:17.607Z,10.60
2019-02-18T14:16:19.925Z,10.70
2019-02-18T14:19:22.260Z,10.70
2019-02-18T14:22:24.596Z,10.80
2019-02-18T14:25:26.895Z,10.90
2019-02-18T14:28:29.906Z,10.90
2019-02-18T14:31:31.646Z,10.90
2019-02-18T14:34:33.956Z,10.90
2019-02-18T14:37:36.300Z,10.90
2019-02-18T14:40:38.680Z,10.90
2019-02-18T14:43:41.045Z,10.90
2019-02-18T14:46:43.352Z,10.90
2019-02-18T14:49:45.674Z,10.90
2019-02-18T14:52:48.046Z,10.90
2019-02-18T14:55:50.347Z,11.00
2019-02-18T14:58:52.670Z,11.00
2019-02-18T15:01:55.031Z,11.10
2019-02-18T15:04:57.355Z,11.10
2019-02-18T15:07:59.670Z,11.10
2019-02-18T15:11:02.110Z,11.10
2019-02-18T15:14:04.481Z,11.20
2019-02-18T15:17:07.370Z,11.20
2019-02-18T15:20:11.442Z,11.20
2019-02-18T15:23:12.040Z,11.20
2019-02-18T15:26:14.379Z,11.20
2019-02-18T15:29:16.715Z,11.30
2019-02-18T15:32:19.071Z,11.30
2019-02-18T15:35:21.468Z,11.30
2019-02-18T15:38:24.005Z,11.30
2019-02-18T15:41:26.413Z,11.30
2019-02-18T15:44:28.783Z,11.30
2019-02-18T15:47:31.130Z,11.30
2019-02-18T15:50:33.529Z,11.30
2019-02-18T15:53:35.841Z,11.30
2019-02-18T15:56:38.242Z,11.30
2019-02-18T15:59:40.564Z,11.20
2019-02-18T16:02:43.005Z,11.20
2019-02-18T16:05:45.691Z,11.20
2019-02-18T16:08:48.160Z,11.20
2019-02-18T16:11:50.542Z,11.20
2019-02-18T16:14:53.444Z,11.10
2019-02-18T16:17:55.734Z,11.10
2019-02-18T16:20:58.190Z,11.10
2019-02-18T16:24:00.629Z,11.00
2019-02-18T16:27:02.987Z,10.90
2019-02-18T16:30:07.010Z,10.90
2019-02-18T16:33:09.664Z,10.80
2019-02-18T16:36:12.070Z,10.80
2019-02-18T16:39:14.459Z,10.70
2019-02-18T16:42:16.913Z,10.70
2019-02-18T16:45:19.234Z,10.70
2019-02-18T16:48:21.548Z,10.60
2019-02-18T16:51:23.828Z,10.50
2019-02-18T16:54:26.208Z,10.50
2019-02-18T16:57:28.513Z,10.40
2019-02-18T17:00:32.417Z,10.40
2019-02-18T17:03:34.737Z,10.30
2019-02-18T17:06:37.257Z,10.30
2019-02-18T17:09:39.715Z,10.30
2019-02-18T17:12:42.145Z,10.30
2019-02-18T17:15:44.932Z,10.30
2019-02-18T17:18:47.307Z,10.20
2019-02-18T17:21:49.865Z,10.20
2019-02-18T17:24:52.168Z,10.10
2019-02-18T17:27:54.587Z,10.00
2019-02-18T17:30:56.930Z,9.90
2019-02-18T17:33:59.238Z,9.90
2019-02-18T17:37:01.650Z,9.80
2019-02-18T17:40:04.230Z,9.70
2019-02-18T17:43:07.428Z,9.70
2019-02-18T17:46:09.718Z,9.60
2019-02-18T17:49:12.659Z,9.60
2019-02-18T17:52:14.990Z,9.50
2019-02-18T17:55:17.279Z,9.50
2019-02-18T17:58:19.792Z,9.40
2019-02-18T18:01:22.133Z,9.30
2019-02-18T18:04:24.541Z,9.30
2019-02-18T18:07:27.431Z,9.20
2019-02-18T18:10:29.998Z,9.10
2019-02-18T18:13:32.519Z,9.10
2019-02-18T18:16:34.922Z,9.00
2019-02-18T18:19:37.208Z,8.90
2019-02-18T18:22:39.925Z,8.80
2019-02-18T18:25:42.335Z,8.80
2019-02-18T18:28:44.796Z,8.70
2019-02-18T18:31:47.113Z,8.60
2019-02-18T18:34:50.325Z,8.50
2019-02-18T18:37:53.453Z,8.50
2019-02-18T18:40:56.998Z,8.40
2019-02-18T18:43:59.344Z,8.30
2019-02-18T18:47:01.699Z,8.20
2019-02-18T18:50:05.344Z,8.10
2019-02-18T18:53:07.718Z,8.10
2019-02-18T18:56:10.068Z,8.10
2019-02-18T18:59:13.158Z,8.00
2019-02-18T19:02:15.731Z,8.00
2019-02-18T19:05:18.170Z,7.90
2019-02-18T19:08:20.476Z,7.90
2019-02-18T19:11:22.865Z,7.80
2019-02-18T19:14:25.241Z,7.80
2019-02-18T19:17:27.585Z,7.70
2019-02-18T19:20:30.787Z,7.60
2019-02-18T19:23:33.820Z,7.50
2019-02-18T19:26:35.720Z,7.50
2019-02-18T19:29:40.028Z,7.40
2019-02-18T19:32:42.362Z,7.40
2019-02-18T19:35:44.940Z,7.30
2019-02-18T19:38:47.324Z,7.20
2019-02-18T19:41:50.385Z,7.20
2019-02-18T19:44:53.333Z,7.10
2019-02-18T19:47:56.359Z,7.10
2019-02-18T19:50:59.695Z,7.00
2019-02-18T19:54:02.840Z,7.00
2019-02-18T19:57:06.332Z,6.90
2019-02-18T20:00:11.938Z,6.80
2019-02-18T20:03:15.080Z,6.80
2019-02-18T20:06:17.449Z,6.70
2019-02-18T20:09:20.304Z,6.70
2019-02-18T20:12:22.773Z,6.60
2019-02-18T20:15:26.001Z,6.50
2019-02-18T20:18:28.554Z,6.50
2019-02-18T20:21:31.419Z,6.50
2019-02-18T20:24:33.762Z,6.40
2019-02-18T20:27:36.397Z,6.30
2019-02-18T20:30:38.727Z,6.30
2019-02-18T20:33:42.655Z,6.20
2019-02-18T20:36:45.161Z,6.10
2019-02-18T20:39:47.624Z,6.00
2019-02-18T20:42:49.914Z,6.00
2019-02-18T20:45:52.907Z,5.90
2019-02-18T20:48:55.269Z,5.80
2019-02-18T20:51:57.592Z,5.80
2019-02-18T20:55:00.016Z,5.70
2019-02-18T20:58:03.879Z,5.60
2019-02-18T21:01:04.697Z,5.50
2019-02-18T21:04:07.743Z,5.40
2019-02-18T21:07:10.169Z,5.40
2019-02-18T21:10:12.684Z,5.30
2019-02-18T21:13:15.383Z,5.20
2019-02-18T21:16:17.756Z,5.20
2019-02-18T21:19:20.172Z,5.10
2019-02-18T21:22:23.456Z,5.10
2019-02-18T21:25:26.174Z,5.00
2019-02-18T21:28:28.530Z,5.00
2019-02-18T21:31:31.472Z,4.90
2019-02-18T21:34:33.897Z,4.80
2019-02-18T21:37:36.167Z,4.70
2019-02-18T21:40:38.549Z,4.60
2019-02-18T21:43:40.908Z,4.60
2019-02-18T21:46:43.309Z,4.50
2019-02-18T21:49:45.920Z,4.50
2019-02-18T21:52:48.239Z,4.40
2019-02-18T21:55:50.569Z,4.40
2019-02-18T21:58:52.942Z,4.30
2019-02-18T22:01:55.340Z,4.20
2019-02-18T22:04:57.665Z,4.20
2019-02-18T22:08:00.425Z,4.10
2019-02-18T22:11:02.874Z,4.00
2019-02-18T22:14:05.242Z,4.00
2019-02-18T22:17:07.547Z,3.90
2019-02-18T22:20:10.159Z,3.90
2019-02-18T22:23:12.463Z,3.80
2019-02-18T22:26:15.403Z,3.80
2019-02-18T22:29:17.802Z,3.70
2019-02-18T22:32:20.132Z,3.70
2019-02-18T22:35:22.453Z,3.70
2019-02-18T22:38:24.796Z,3.60
2019-02-18T22:41:27.714Z,3.60
2019-02-18T22:44:30.026Z,3.60
2019-02-18T22:47:32.355Z,3.50
2019-02-18T22:50:34.674Z,3.50
2019-02-18T22:53:37.772Z,3.50
2019-02-18T22:56:40.763Z,3.40
2019-02-18T22:59:42.312Z,3.40
2019-02-18T23:02:44.658Z,3.40
2019-02-18T23:05:47.373Z,3.30
2019-02-18T23:08:49.643Z,3.30
2019-02-18T23:11:51.882Z,3.20
2019-02-18T23:14:54.206Z,3.10
2019-02-18T23:17:56.492Z,3.00
2019-02-18T23:20:58.806Z,3.00
2019-02-18T23:24:01.186Z,3.00
2019-02-18T23:27:03.936Z,2.90
2019-02-18T23:30:05.905Z,2.90
2019-02-18T23:33:08.332Z,2.80
2019-02-18T23:36:10.679Z,2.80
2019-02-18T23:39:13.655Z,2.80
2019-02-18T23:42:17.656Z,2.80
2019-02-18T23:45:19.971Z,2.80
2019-02-18T23:48:22.351Z,2.80
2019-02-18T23:51:24.652Z,2.80
2019-02-18T23:54:26.943Z,2.80
2019-02-18T23:57:29.231Z,2.80
